MOOI WEER BOXTEL

Weerstation in Boxtel

Actuele weerinformatie en voorspellingen


Onweer radar Meer informatie blitzortung!


Regen radar Meer informatie rain snow radar


Meer informatie

Template documentation
and downloads

Weblog Hans on Experience

Profiel Hans Mestrum



Het weer levert geen direct gevaar op.    Er zijn geen waarschuwingen afgegeven.

METAR rapporten vliegvelden

   
EHEH - Eindhoven
Gewijzigd: 17-11-2018 09:55
Helder  
Helder  
   Wind: Oosten 13 km/h
Wind: Oosten 13 km/h
Temperatuur: 5°C
Voelt als: 2°C
Dauwpunt: 1°C
Vochtigheid: 76%
Barometer: 1030 hPa
Bewolking: Helder
Zicht: meer dan 10 km
Bewolking: Helder
EHEH 170855Z AUTO 08007KT 030V110 9999 NCD 05/01 Q1030 BLU 08007KT CAVOK
EHVK - Volkel
Gewijzigd: 17-11-2018 09:55
Nevel, Helder  
Nevel, Helder  
   Wind: Oosten 14.8 km/h
Wind: Oosten 14.8 km/h
Temperatuur: 3°C
Voelt als: -1°C
Dauwpunt: 1°C
Vochtigheid: 87%
Barometer: 1031 hPa
Bewolking: Helder
Zicht: 6 km
Bewolking: Helder
EHVK 170855Z AUTO 08008KT 6000 BR NCD 03/01 Q1031 WHT
EBAW - Antwerpen
Gewijzigd: 17-11-2018 09:50
Helder  
Helder  
   Wind: Oosten 13 km/h
Wind: Oosten 13 km/h
Zicht: meer dan 10 km
Bewolking: Helder
EBAW 170850Z 09007KT CAVOK 03/// Q1029 NOSIG
EHBK - Maastricht
Gewijzigd: 17-11-2018 09:55
Helder  
Helder  
   Wind: Oosten 22.2 km/h
Wind: Oosten 22.2 km/h
Temperatuur: 4°C
Voelt als: -1°C
Dauwpunt: 1°C
Vochtigheid: 81%
Barometer: 1028 hPa
Bewolking: Helder
Zicht: meer dan 10 km
Bewolking: Helder
EHBK 170855Z AUTO 08012KT 9999 NCD 04/01 Q1028 NOSIG
ELLX - Luxemburg
Gewijzigd: 17-11-2018 09:50
Helder  
Helder  
   Wind: ONO 20.4 km/h
Wind: ONO 20.4 km/h
Temperatuur: 3°C
Voelt als: -2°C
Dauwpunt: 0°C
Vochtigheid: 81%
Barometer: 1026 hPa
Zicht: meer dan 10 km
Bewolking: Helder
ELLX 170850Z 06011KT CAVOK 03/M00 Q1026 NOSIG
 

Script ontwikkeld door  Saratoga-weather.org Aangepast voor de template door  Weerstation Leuven

U vindt ons ook hier:

Het Weer Aktueel

UK Metoffice

European Weather Network

Weather Underground

AWEKAS

Citizen Weather Observer Program (CWOP)

HAMweather, WeatherForYou, PWS Weather

Apparatuur in gebruik:

Weerstation
Davis Vue ISS

Weerprogramma
Meteobridge

Weercomputer
Asus WL -330N3G

Webleverancier
Weerhuisje.nl

Davis Vue ISS

Meteobridge

Asus WL -330N3G

Weerhuisje.nl